KGXY/GXY METAR and TAF weather

Enter ICAO airport designator
Station Type Date Time Source
KGXY METAR 2019/08/23 14:56 UTC NOAA

KGXY 231456Z AUTO 03006KT 10SM 20/13 A3000 RMK AO2 SLP116 T02000128 51007 $


Station Type Date Time Source
KGXY Decoded METAR 2019/08/23 14:56 UTC NOAA

Station name not available
Aug 23, 2019 - 10:56 AM EDT / 2019.08.23 1456 UTC
Wind: from the NNE (030 degrees) at 7 MPH (6 KT):0
Visibility: 10 mile(s):0
Temperature: 68.0 F (20.0 C)
Dew Point: 55.0 F (12.8 C)
Relative Humidity: 63%
Pressure (altimeter): 30 in. Hg (1015 hPa)
Pressure tendency: 0.02 inches (0.7 hPa) higher than three hours ago
ob: KGXY 231456Z AUTO 03006KT 10SM 20/13 A3000 RMK AO2 SLP116 T02000128 51007
cycle: 15

Station Type Date Time Source
KGXY TAF UTC NOAA

Error!

Example: see airport list